createdAt,value
2018-12-25T00:02:11.409Z,52.57
2018-12-25T00:04:42.180Z,55.00
2018-12-25T00:07:11.711Z,52.80
2018-12-25T00:09:41.441Z,53.67
2018-12-25T00:12:11.044Z,52.33
2018-12-25T00:14:40.687Z,56.20
2018-12-25T00:17:10.266Z,54.17
2018-12-25T00:19:39.939Z,54.87
2018-12-25T00:22:09.575Z,50.53
2018-12-25T00:24:39.249Z,51.40
2018-12-25T00:27:08.832Z,54.40
2018-12-25T00:29:38.519Z,55.47
2018-12-25T00:32:08.106Z,55.00
2018-12-25T00:34:37.791Z,52.47
2018-12-25T00:37:07.502Z,54.97
2018-12-25T00:39:37.069Z,53.20
2018-12-25T00:42:06.788Z,51.13
2018-12-25T00:44:36.471Z,53.47
2018-12-25T00:47:06.116Z,53.30
2018-12-25T00:49:35.647Z,52.53
2018-12-25T00:52:05.324Z,52.63
2018-12-25T00:54:34.977Z,53.03
2018-12-25T00:57:04.625Z,50.60
2018-12-25T00:59:34.292Z,53.07
2018-12-25T01:02:03.951Z,53.90
2018-12-25T01:04:33.632Z,50.97
2018-12-25T01:07:03.210Z,52.30
2018-12-25T01:09:32.854Z,51.87
2018-12-25T01:12:02.530Z,51.23
2018-12-25T01:14:32.038Z,51.07
2018-12-25T01:17:01.630Z,51.03
2018-12-25T01:19:31.251Z,53.73
2018-12-25T01:22:00.898Z,54.17
2018-12-25T01:24:30.526Z,56.20
2018-12-25T01:27:00.134Z,50.40
2018-12-25T01:29:29.782Z,53.23
2018-12-25T01:31:59.435Z,51.40
2018-12-25T01:34:29.292Z,53.47
2018-12-25T01:36:58.870Z,53.27
2018-12-25T01:39:28.634Z,50.13
2018-12-25T01:41:58.611Z,53.10
2018-12-25T01:44:28.187Z,53.33
2018-12-25T01:46:57.856Z,54.73
2018-12-25T01:49:31.758Z,50.50
2018-12-25T01:51:58.856Z,51.90
2018-12-25T01:54:28.525Z,52.13
2018-12-25T01:56:58.135Z,51.63
2018-12-25T01:59:27.778Z,52.67
2018-12-25T02:01:57.532Z,50.57
2018-12-25T02:04:27.162Z,51.17
2018-12-25T02:06:56.684Z,50.40
2018-12-25T02:09:26.281Z,56.13
2018-12-25T02:11:55.947Z,56.33
2018-12-25T02:14:25.621Z,54.93
2018-12-25T02:16:55.282Z,53.80
2018-12-25T02:19:25.146Z,55.37
2018-12-25T02:21:54.723Z,54.80
2018-12-25T02:24:24.373Z,53.30
2018-12-25T02:26:54.056Z,54.33
2018-12-25T02:29:23.870Z,53.17
2018-12-25T02:31:53.590Z,55.37
2018-12-25T02:34:23.204Z,51.03
2018-12-25T02:36:52.932Z,54.57
2018-12-25T02:39:22.528Z,52.73
2018-12-25T02:41:52.218Z,51.03
2018-12-25T02:44:21.858Z,51.80
2018-12-25T02:46:51.442Z,50.10
2018-12-25T02:49:21.114Z,49.97
2018-12-25T02:51:50.642Z,51.37
2018-12-25T02:54:20.286Z,51.23
2018-12-25T02:56:49.889Z,50.73
2018-12-25T02:59:19.489Z,49.40
2018-12-25T03:01:49.139Z,50.73
2018-12-25T03:04:18.824Z,48.57
2018-12-25T03:06:48.400Z,51.17
2018-12-25T03:09:18.155Z,50.53
2018-12-25T03:11:48.013Z,47.10
2018-12-25T03:14:17.676Z,50.47
2018-12-25T03:16:47.336Z,48.70
2018-12-25T03:19:18.530Z,47.97
2018-12-25T03:21:48.051Z,47.70
2018-12-25T03:24:17.712Z,51.20
2018-12-25T03:26:47.423Z,49.43
2018-12-25T03:29:17.010Z,50.10
2018-12-25T03:31:46.659Z,46.90
2018-12-25T03:34:16.329Z,49.50
2018-12-25T03:36:46.001Z,48.57
2018-12-25T03:39:15.916Z,47.97
2018-12-25T03:41:45.575Z,48.33
2018-12-25T03:44:15.215Z,51.13
2018-12-25T03:46:44.870Z,49.60
2018-12-25T03:49:14.392Z,50.13
2018-12-25T03:51:44.067Z,47.50
2018-12-25T03:54:13.712Z,49.30
2018-12-25T03:56:43.401Z,48.07
2018-12-25T03:59:12.979Z,48.80
2018-12-25T04:01:42.624Z,49.73
2018-12-25T04:04:12.280Z,49.10
2018-12-25T04:06:41.848Z,49.97
2018-12-25T04:09:11.618Z,49.23
2018-12-25T04:11:41.300Z,49.10
2018-12-25T04:14:11.160Z,51.53
2018-12-25T04:16:40.803Z,49.20
2018-12-25T04:19:10.397Z,47.40
2018-12-25T04:21:40.263Z,48.17
2018-12-25T04:24:09.918Z,51.00
2018-12-25T04:26:39.605Z,51.40
2018-12-25T04:29:09.198Z,51.63
2018-12-25T04:31:38.859Z,52.10
2018-12-25T04:34:08.527Z,51.77
2018-12-25T04:36:38.217Z,49.17
2018-12-25T04:39:08.550Z,49.53
2018-12-25T04:41:38.076Z,53.70
2018-12-25T04:44:07.599Z,52.40
2018-12-25T04:46:38.168Z,51.60
2018-12-25T04:49:07.835Z,49.23
2018-12-25T04:51:37.538Z,48.40
2018-12-25T04:54:07.118Z,51.00
2018-12-25T04:56:36.862Z,51.07
2018-12-25T04:59:06.379Z,49.40
2018-12-25T05:01:36.044Z,49.00
2018-12-25T05:04:05.711Z,49.67
2018-12-25T05:06:35.305Z,51.50
2018-12-25T05:09:07.278Z,52.17
2018-12-25T05:11:36.899Z,51.03
2018-12-25T05:14:06.505Z,52.77
2018-12-25T05:16:36.151Z,48.43
2018-12-25T05:19:05.648Z,52.53
2018-12-25T05:21:35.313Z,48.73
2018-12-25T05:24:04.965Z,52.87
2018-12-25T05:26:34.672Z,49.80
2018-12-25T05:29:04.329Z,49.83
2018-12-25T05:31:34.032Z,49.70
2018-12-25T05:34:03.740Z,50.47
2018-12-25T05:36:33.391Z,51.40
2018-12-25T05:39:03.331Z,51.00
2018-12-25T05:41:33.003Z,50.57
2018-12-25T05:44:02.590Z,52.20
2018-12-25T05:46:32.242Z,51.43
2018-12-25T05:49:01.853Z,52.97
2018-12-25T05:51:31.520Z,52.43
2018-12-25T05:54:01.187Z,58.63
2018-12-25T05:56:30.882Z,57.37
2018-12-25T05:59:00.444Z,52.23
2018-12-25T06:01:29.957Z,51.77
2018-12-25T06:03:59.743Z,53.47
2018-12-25T06:06:29.337Z,51.17
2018-12-25T06:08:58.914Z,50.90
2018-12-25T06:11:28.598Z,53.43
2018-12-25T06:13:58.205Z,51.67
2018-12-25T06:16:27.871Z,49.60
2018-12-25T06:18:57.474Z,51.17
2018-12-25T06:21:27.195Z,51.63
2018-12-25T06:23:56.776Z,51.83
2018-12-25T06:26:26.453Z,54.27
2018-12-25T06:28:56.124Z,49.83
2018-12-25T06:31:25.804Z,51.67
2018-12-25T06:33:55.782Z,50.03
2018-12-25T06:36:25.357Z,53.27
2018-12-25T06:38:54.951Z,53.93
2018-12-25T06:41:24.558Z,53.93
2018-12-25T06:43:54.142Z,53.57
2018-12-25T06:46:23.677Z,53.37
2018-12-25T06:48:53.369Z,52.87
2018-12-25T06:51:22.869Z,51.73
2018-12-25T06:53:52.626Z,49.90
2018-12-25T06:56:22.314Z,53.87
2018-12-25T06:58:51.987Z,54.83
2018-12-25T07:01:21.635Z,51.57
2018-12-25T07:03:51.375Z,51.83
2018-12-25T07:06:21.128Z,52.57
2018-12-25T07:08:50.797Z,54.40
2018-12-25T07:11:20.640Z,53.33
2018-12-25T07:13:50.288Z,52.33
2018-12-25T07:16:20.068Z,53.03
2018-12-25T07:18:49.754Z,54.17
2018-12-25T07:21:19.357Z,50.90
2018-12-25T07:23:48.942Z,54.07
2018-12-25T07:26:18.576Z,54.70
2018-12-25T07:28:48.169Z,52.43
2018-12-25T07:31:17.820Z,52.77
2018-12-25T07:33:47.434Z,52.23
2018-12-25T07:36:17.011Z,52.43
2018-12-25T07:38:46.675Z,54.73
2018-12-25T07:41:19.383Z,55.40
2018-12-25T07:43:48.927Z,52.83
2018-12-25T07:46:18.497Z,54.40
2018-12-25T07:48:48.296Z,54.60
2018-12-25T07:51:20.812Z,53.53
2018-12-25T07:53:49.427Z,55.13
2018-12-25T07:56:18.980Z,52.30
2018-12-25T07:58:48.595Z,52.33
2018-12-25T08:01:18.181Z,55.23
2018-12-25T08:03:47.844Z,54.70
2018-12-25T08:06:17.558Z,54.27
2018-12-25T08:08:47.353Z,54.53
2018-12-25T08:11:17.069Z,52.13
2018-12-25T08:13:46.835Z,50.80
2018-12-25T08:16:16.496Z,52.63
2018-12-25T08:18:46.120Z,50.40
2018-12-25T08:21:15.796Z,52.47
2018-12-25T08:23:46.977Z,52.30
2018-12-25T08:26:16.660Z,52.53
2018-12-25T08:28:46.251Z,53.33
2018-12-25T08:31:15.849Z,54.43
2018-12-25T08:33:45.452Z,51.47
2018-12-25T08:36:15.106Z,53.30
2018-12-25T08:38:44.778Z,54.23
2018-12-25T08:41:14.449Z,53.07
2018-12-25T08:43:44.464Z,51.93
2018-12-25T08:46:14.130Z,54.47
2018-12-25T08:48:43.826Z,52.63
2018-12-25T08:51:13.488Z,54.23
2018-12-25T08:53:43.139Z,53.47
2018-12-25T08:56:12.764Z,51.97
2018-12-25T08:58:42.352Z,52.13
2018-12-25T09:01:12.078Z,52.80
2018-12-25T09:03:41.780Z,55.47
2018-12-25T09:06:11.555Z,54.67
2018-12-25T09:08:41.229Z,54.43
2018-12-25T09:11:10.831Z,54.03
2018-12-25T09:16:30.661Z,51.37
2018-12-25T09:19:19.394Z,52.57
2018-12-25T09:21:49.173Z,54.47
2018-12-25T09:24:19.012Z,54.57
2018-12-25T09:26:48.663Z,55.47
2018-12-25T09:29:18.336Z,54.87
2018-12-25T09:31:49.072Z,54.73
2018-12-25T09:34:18.657Z,54.33
2018-12-25T09:36:48.452Z,52.57
2018-12-25T09:39:18.200Z,54.17
2018-12-25T09:41:48.016Z,54.33
2018-12-25T09:44:17.691Z,56.00
2018-12-25T09:46:47.338Z,53.33
2018-12-25T09:49:16.997Z,60.53
2018-12-25T09:51:54.381Z,55.23
2018-12-25T09:54:18.125Z,54.73
2018-12-25T09:56:47.841Z,57.93
2018-12-25T09:59:17.417Z,58.27
2018-12-25T10:01:47.029Z,58.00
2018-12-25T10:04:16.688Z,57.20
2018-12-25T10:06:46.335Z,55.60
2018-12-25T10:09:15.931Z,55.63
2018-12-25T10:11:45.540Z,57.87
2018-12-25T10:14:15.238Z,60.17
2018-12-25T10:16:44.891Z,58.00
2018-12-25T10:19:14.568Z,60.83
2018-12-25T10:21:44.330Z,59.47
2018-12-25T10:24:13.956Z,58.10
2018-12-25T10:26:43.642Z,57.00
2018-12-25T10:29:13.353Z,58.10
2018-12-25T10:31:42.983Z,57.43
2018-12-25T10:34:12.675Z,62.20
2018-12-25T10:36:42.616Z,58.60
2018-12-25T10:39:12.356Z,59.50
2018-12-25T10:41:42.025Z,60.10
2018-12-25T10:44:11.723Z,59.10
2018-12-25T10:46:41.376Z,59.73
2018-12-25T10:49:11.064Z,59.30
2018-12-25T10:51:40.671Z,55.50
2018-12-25T10:54:10.370Z,58.17
2018-12-25T10:56:40.095Z,57.23
2018-12-25T10:59:09.746Z,58.27
2018-12-25T11:01:39.346Z,58.73
2018-12-25T11:04:09.115Z,60.87
2018-12-25T11:06:38.743Z,58.60
2018-12-25T11:09:08.590Z,58.43
2018-12-25T11:11:38.168Z,56.43
2018-12-25T11:14:07.880Z,62.03
2018-12-25T11:16:37.549Z,56.47
2018-12-25T11:19:07.295Z,57.93
2018-12-25T11:21:38.483Z,58.27
2018-12-25T11:24:08.249Z,60.13
2018-12-25T11:26:37.979Z,60.10
2018-12-25T11:29:07.772Z,59.07
2018-12-25T11:31:37.480Z,62.93
2018-12-25T11:34:08.075Z,59.60
2018-12-25T11:36:37.716Z,59.30
2018-12-25T11:39:07.907Z,59.83
2018-12-25T11:41:37.632Z,59.63
2018-12-25T11:44:07.323Z,59.03
2018-12-25T11:46:37.013Z,58.13
2018-12-25T11:49:06.710Z,59.73
2018-12-25T11:51:36.400Z,60.73
2018-12-25T11:54:06.069Z,61.57
2018-12-25T11:56:37.202Z,60.17
2018-12-25T11:59:06.873Z,58.80
2018-12-25T12:01:36.684Z,62.37
2018-12-25T12:04:06.317Z,59.00
2018-12-25T12:06:35.914Z,57.03
2018-12-25T12:09:08.038Z,57.90
2018-12-25T12:11:37.730Z,60.70
2018-12-25T12:14:07.490Z,62.20
2018-12-25T12:16:37.425Z,58.90
2018-12-25T12:19:06.860Z,63.03
2018-12-25T12:21:36.653Z,57.97
2018-12-25T12:24:06.318Z,60.30
2018-12-25T12:26:35.973Z,60.03
2018-12-25T12:29:05.760Z,58.70
2018-12-25T12:31:35.353Z,58.97
2018-12-25T12:34:05.041Z,60.17
2018-12-25T12:36:34.677Z,58.67
2018-12-25T12:39:06.692Z,61.50
2018-12-25T12:41:36.429Z,57.97
2018-12-25T12:44:06.147Z,58.50
2018-12-25T12:46:35.817Z,57.00
2018-12-25T12:49:05.481Z,57.93
2018-12-25T12:51:35.034Z,59.10
2018-12-25T12:54:04.705Z,57.37
2018-12-25T12:56:34.382Z,58.73
2018-12-25T12:59:04.080Z,59.63
2018-12-25T13:01:33.846Z,57.70
2018-12-25T13:04:03.506Z,59.20
2018-12-25T13:06:33.104Z,58.83
2018-12-25T13:09:02.878Z,60.83
2018-12-25T13:11:32.707Z,60.70
2018-12-25T13:14:02.387Z,60.70
2018-12-25T13:16:32.223Z,61.63
2018-12-25T13:19:01.830Z,62.13
2018-12-25T13:21:31.520Z,61.90
2018-12-25T13:24:01.171Z,63.43
2018-12-25T13:26:30.862Z,64.27
2018-12-25T13:29:00.464Z,61.63
2018-12-25T13:31:30.355Z,63.20
2018-12-25T13:33:59.964Z,59.47
2018-12-25T13:36:30.796Z,62.17
2018-12-25T13:39:00.423Z,61.07
2018-12-25T13:41:30.007Z,61.63
2018-12-25T13:43:59.827Z,60.27
2018-12-25T13:46:29.421Z,61.03
2018-12-25T13:49:00.058Z,61.67
2018-12-25T13:51:29.730Z,60.33
2018-12-25T13:53:59.383Z,59.87
2018-12-25T13:56:29.055Z,60.63
2018-12-25T13:58:59.772Z,61.10
2018-12-25T14:01:29.442Z,60.50
2018-12-25T14:04:02.789Z,61.37
2018-12-25T14:06:32.742Z,61.43
2018-12-25T14:09:02.584Z,61.30
2018-12-25T14:11:32.267Z,61.37
2018-12-25T14:14:01.881Z,61.13
2018-12-25T14:16:32.147Z,61.87
2018-12-25T14:19:02.182Z,62.17
2018-12-25T14:21:31.856Z,65.57
2018-12-25T14:24:01.515Z,62.50
2018-12-25T14:26:32.572Z,63.60
2018-12-25T14:29:02.182Z,62.53
2018-12-25T14:31:31.788Z,63.10
2018-12-25T14:34:01.465Z,62.63
2018-12-25T14:36:31.117Z,60.17
2018-12-25T14:39:02.119Z,62.37
2018-12-25T14:41:31.815Z,58.77
2018-12-25T14:44:05.426Z,60.97
2018-12-25T14:46:32.916Z,59.93
2018-12-25T14:49:02.758Z,59.13
2018-12-25T14:51:32.438Z,61.17
2018-12-25T14:54:02.249Z,63.37
2018-12-25T14:56:31.914Z,60.33
2018-12-25T14:59:01.604Z,65.17
2018-12-25T15:01:31.324Z,61.63
2018-12-25T15:04:01.309Z,61.67
2018-12-25T15:06:30.974Z,60.27
2018-12-25T15:09:00.623Z,62.10
2018-12-25T15:11:30.223Z,62.23
2018-12-25T15:13:59.930Z,60.23
2018-12-25T15:16:29.689Z,59.60
2018-12-25T15:18:59.359Z,58.67
2018-12-25T15:21:48.290Z,58.97
2018-12-25T15:24:17.886Z,58.27
2018-12-25T15:26:47.404Z,60.73
2018-12-25T15:29:17.081Z,60.07
2018-12-25T15:31:46.598Z,59.70
2018-12-25T15:34:16.128Z,59.70
2018-12-25T15:36:45.821Z,59.27
2018-12-25T15:39:15.482Z,58.53
2018-12-25T15:41:46.534Z,59.17
2018-12-25T15:44:16.136Z,65.90
2018-12-25T15:46:45.793Z,65.40
2018-12-25T15:49:15.454Z,65.97
2018-12-25T15:51:45.215Z,66.57
2018-12-25T15:54:21.692Z,71.90
2018-12-25T15:56:54.328Z,63.77
2018-12-25T15:59:23.926Z,63.53
2018-12-25T16:01:53.602Z,72.13
2018-12-25T16:04:23.228Z,73.33
2018-12-25T16:06:53.216Z,68.47
2018-12-25T16:09:22.778Z,74.03
2018-12-25T16:11:52.430Z,71.47
2018-12-25T16:14:22.265Z,91.30
2018-12-25T16:16:51.787Z,108.00
2018-12-25T16:19:21.397Z,117.90
2018-12-25T16:21:51.098Z,102.20
2018-12-25T16:24:27.321Z,85.17
2018-12-25T16:26:52.104Z,100.00
2018-12-25T16:29:21.625Z,78.80
2018-12-25T16:31:51.305Z,63.63
2018-12-25T16:34:20.988Z,61.73
2018-12-25T16:36:50.906Z,58.87
2018-12-25T16:39:20.522Z,60.13
2018-12-25T16:41:50.225Z,59.33
2018-12-25T16:44:19.819Z,60.63
2018-12-25T16:46:49.586Z,57.10
2018-12-25T16:49:19.205Z,63.57
2018-12-25T16:51:48.853Z,58.93
2018-12-25T16:54:20.040Z,59.63
2018-12-25T16:56:49.714Z,60.83
2018-12-25T16:59:19.385Z,58.93
2018-12-25T17:01:49.078Z,58.23
2018-12-25T17:04:18.775Z,60.77
2018-12-25T17:06:48.445Z,57.77
2018-12-25T17:09:18.112Z,59.20
2018-12-25T17:11:47.757Z,57.93
2018-12-25T17:14:17.508Z,58.87
2018-12-25T17:16:47.032Z,56.00
2018-12-25T17:19:16.716Z,57.60
2018-12-25T17:21:46.206Z,56.73
2018-12-25T17:24:15.947Z,59.03
2018-12-25T17:26:46.598Z,59.70
2018-12-25T17:29:16.502Z,55.37
2018-12-25T17:31:46.162Z,62.87
2018-12-25T17:34:15.867Z,57.90
2018-12-25T17:36:45.537Z,57.30
2018-12-25T17:39:15.183Z,57.67
2018-12-25T17:41:44.895Z,57.87
2018-12-25T17:44:14.569Z,62.20
2018-12-25T17:46:44.174Z,57.03
2018-12-25T17:49:13.793Z,57.00
2018-12-25T17:51:43.491Z,56.83
2018-12-25T17:54:13.089Z,69.87
2018-12-25T17:56:43.642Z,61.47
2018-12-25T17:59:13.413Z,56.73
2018-12-25T18:01:43.045Z,58.50
2018-12-25T18:04:12.810Z,57.83
2018-12-25T18:06:42.530Z,57.43
2018-12-25T18:09:12.159Z,56.70
2018-12-25T18:11:42.358Z,56.40
2018-12-25T18:14:12.021Z,58.93
2018-12-25T18:16:41.621Z,58.33
2018-12-25T18:19:11.237Z,57.03
2018-12-25T18:21:40.838Z,56.67
2018-12-25T18:24:10.430Z,60.03
2018-12-25T18:26:40.115Z,59.70
2018-12-25T18:29:10.563Z,57.83
2018-12-25T18:31:40.238Z,59.43
2018-12-25T18:34:09.863Z,59.27
2018-12-25T18:36:39.565Z,62.20
2018-12-25T18:39:09.168Z,57.63
2018-12-25T18:41:39.028Z,58.60
2018-12-25T18:44:08.615Z,57.97
2018-12-25T18:46:38.199Z,58.73
2018-12-25T18:49:07.893Z,58.90
2018-12-25T18:51:37.551Z,59.17
2018-12-25T18:54:07.217Z,61.83
2018-12-25T18:56:36.845Z,58.57
2018-12-25T18:59:06.519Z,58.40
2018-12-25T19:01:36.199Z,58.87
2018-12-25T19:04:05.907Z,57.93
2018-12-25T19:06:35.357Z,59.00
2018-12-25T19:09:06.713Z,60.40
2018-12-25T19:11:36.420Z,58.73
2018-12-25T19:14:06.107Z,59.53
2018-12-25T19:16:36.153Z,60.17
2018-12-25T19:19:05.920Z,61.33
2018-12-25T19:21:35.694Z,59.73
2018-12-25T19:24:05.719Z,62.47
2018-12-25T19:26:35.403Z,60.30
2018-12-25T19:29:05.068Z,60.87
2018-12-25T19:31:34.721Z,63.60
2018-12-25T19:34:04.360Z,60.03
2018-12-25T19:36:34.099Z,60.07
2018-12-25T19:39:04.932Z,62.60
2018-12-25T19:41:34.616Z,59.63
2018-12-25T19:44:04.289Z,60.80
2018-12-25T19:46:33.949Z,59.03
2018-12-25T19:49:03.651Z,59.60
2018-12-25T19:51:33.327Z,60.23
2018-12-25T19:54:03.060Z,60.10
2018-12-25T19:56:37.612Z,60.20
2018-12-25T19:59:07.295Z,59.00
2018-12-25T20:01:36.984Z,62.37
2018-12-25T20:04:10.729Z,62.03
2018-12-25T20:07:06.764Z,63.13
2018-12-25T20:09:58.819Z,62.03
2018-12-25T20:13:05.467Z,64.40
2018-12-25T20:16:17.051Z,63.43
2018-12-25T20:19:14.778Z,60.87
2018-12-25T20:22:00.875Z,59.30
2018-12-25T20:24:52.715Z,59.30
2018-12-25T20:27:37.548Z,61.90
2018-12-25T20:30:44.783Z,60.77
2018-12-25T20:33:33.308Z,61.43
2018-12-25T20:36:38.657Z,63.03
2018-12-25T20:39:34.879Z,59.00
2018-12-25T20:42:17.378Z,61.57
2018-12-25T20:44:54.235Z,60.23
2018-12-25T20:48:01.202Z,64.83
2018-12-25T20:50:54.645Z,59.97
2018-12-25T20:54:08.094Z,61.23
2018-12-25T20:56:57.065Z,58.60
2018-12-25T21:00:14.782Z,59.93
2018-12-25T21:03:25.743Z,61.63
2018-12-25T21:06:35.900Z,61.00
2018-12-25T21:09:36.443Z,60.10
2018-12-25T21:12:30.002Z,61.03
2018-12-25T21:15:35.578Z,62.03
2018-12-25T21:18:33.798Z,63.57
2018-12-25T21:21:31.500Z,61.70
2018-12-25T21:24:56.656Z,63.07
2018-12-25T21:27:30.712Z,61.33
2018-12-25T21:30:03.073Z,62.67
2018-12-25T21:32:34.854Z,63.17
2018-12-25T21:35:15.057Z,68.27
2018-12-25T21:37:46.028Z,65.17
2018-12-25T21:40:15.760Z,62.00
2018-12-25T21:42:46.824Z,62.00
2018-12-25T21:45:16.477Z,59.07
2018-12-25T21:47:46.354Z,60.57
2018-12-25T21:50:16.337Z,62.23
2018-12-25T21:52:51.111Z,62.47
2018-12-25T21:55:20.852Z,61.57
2018-12-25T21:57:51.919Z,62.70
2018-12-25T22:00:21.993Z,61.03
2018-12-25T22:02:51.994Z,62.03
2018-12-25T22:05:22.469Z,61.77
2018-12-25T22:07:52.222Z,61.97
2018-12-25T22:10:21.908Z,62.13
2018-12-25T22:12:55.437Z,65.07
2018-12-25T22:15:25.176Z,63.43
2018-12-25T22:17:54.870Z,64.10
2018-12-25T22:20:25.354Z,61.20
2018-12-25T22:22:54.994Z,66.70
2018-12-25T22:25:27.237Z,63.03
2018-12-25T22:27:56.164Z,60.13
2018-12-25T22:30:25.973Z,61.00
2018-12-25T22:32:55.570Z,64.67
2018-12-25T22:35:25.237Z,63.07
2018-12-25T22:37:54.902Z,61.67
2018-12-25T22:40:24.603Z,62.67
2018-12-25T22:42:54.274Z,63.00
2018-12-25T22:45:24.616Z,63.77
2018-12-25T22:47:54.313Z,63.17
2018-12-25T22:50:23.989Z,64.37
2018-12-25T22:52:53.559Z,61.60
2018-12-25T22:55:23.180Z,62.87
2018-12-25T22:57:52.776Z,62.27
2018-12-25T23:00:22.442Z,63.03
2018-12-25T23:02:52.244Z,64.07
2018-12-25T23:05:21.900Z,65.93
2018-12-25T23:07:51.498Z,59.33
2018-12-25T23:10:21.179Z,61.47
2018-12-25T23:12:50.951Z,63.37
2018-12-25T23:15:20.712Z,63.43
2018-12-25T23:17:50.387Z,62.40
2018-12-25T23:20:28.635Z,61.83
2018-12-25T23:22:54.275Z,62.67
2018-12-25T23:25:23.949Z,61.87
2018-12-25T23:27:53.614Z,61.60
2018-12-25T23:30:23.301Z,64.10
2018-12-25T23:32:52.922Z,61.97
2018-12-25T23:35:22.600Z,63.03
2018-12-25T23:37:52.246Z,60.33
2018-12-25T23:40:21.864Z,61.17
2018-12-25T23:42:51.525Z,62.97
2018-12-25T23:45:21.121Z,59.83
2018-12-25T23:47:50.723Z,59.00
2018-12-25T23:50:20.388Z,61.50
2018-12-25T23:52:49.981Z,60.57
2018-12-25T23:55:19.600Z,62.50
2018-12-25T23:57:49.287Z,61.50
